createdAt,value
2018-12-02T00:04:01.458Z,253.40
2018-12-02T00:09:06.831Z,78.30
2018-12-02T00:14:10.689Z,87.30
2018-12-02T00:19:14.732Z,216.33
2018-12-02T00:24:18.538Z,185.30
2018-12-02T00:29:22.564Z,175.10
2018-12-02T00:34:26.798Z,187.07
2018-12-02T00:39:30.923Z,218.77
2018-12-02T00:44:35.028Z,147.73
2018-12-02T00:49:39.171Z,186.40
2018-12-02T00:54:43.278Z,179.17
2018-12-02T00:59:47.378Z,155.93
2018-12-02T01:04:51.495Z,143.60
2018-12-02T01:09:55.653Z,202.93
2018-12-02T01:14:59.453Z,171.43
2018-12-02T01:20:03.571Z,162.47
2018-12-02T01:25:09.101Z,135.87
2018-12-02T01:30:20.939Z,160.77
2018-12-02T01:35:25.073Z,133.70
2018-12-02T01:40:30.033Z,158.97
2018-12-02T01:45:34.071Z,182.60
2018-12-02T01:50:38.279Z,110.83
2018-12-02T01:55:42.426Z,95.40
2018-12-02T02:00:46.558Z,154.17
2018-12-02T02:05:50.694Z,175.57
2018-12-02T02:10:54.827Z,138.30
2018-12-02T02:15:58.952Z,116.33
2018-12-02T02:21:03.176Z,135.17
2018-12-02T02:26:06.973Z,91.67
2018-12-02T02:31:10.989Z,151.93
2018-12-02T02:36:15.106Z,151.93
2018-12-02T02:41:18.898Z,121.70
2018-12-02T02:46:22.908Z,125.30
2018-12-02T02:51:27.067Z,157.67
2018-12-02T02:56:31.168Z,152.33
2018-12-02T03:01:35.290Z,115.43
2018-12-02T03:06:40.528Z,108.17
2018-12-02T03:11:44.238Z,134.63
2018-12-02T03:16:48.276Z,150.80
2018-12-02T03:21:52.375Z,176.23
2018-12-02T03:26:56.487Z,179.07
2018-12-02T03:32:00.588Z,146.70
2018-12-02T03:37:04.438Z,169.50
2018-12-02T03:42:08.155Z,171.87
2018-12-02T03:47:14.154Z,217.20
2018-12-02T03:52:18.294Z,115.57
2018-12-02T03:57:22.428Z,185.20
2018-12-02T04:02:26.544Z,166.40
2018-12-02T04:07:30.687Z,169.13
2018-12-02T04:12:34.831Z,116.50
2018-12-02T04:17:38.609Z,131.37
2018-12-02T04:22:42.725Z,175.00
2018-12-02T04:27:46.847Z,229.43
2018-12-02T04:32:51.771Z,186.63
2018-12-02T04:37:55.925Z,195.50
2018-12-02T04:42:59.700Z,160.13
2018-12-02T04:48:03.724Z,153.07
2018-12-02T04:53:07.830Z,170.00
2018-12-02T04:58:11.955Z,98.67
2018-12-02T05:03:16.071Z,149.00
2018-12-02T05:08:20.231Z,112.80
2018-12-02T05:13:24.336Z,152.23
2018-12-02T05:18:28.568Z,144.57
2018-12-02T05:23:32.343Z,141.93
2018-12-02T05:28:36.352Z,123.57
2018-12-02T05:33:41.166Z,190.10
2018-12-02T05:38:44.946Z,122.47
2018-12-02T05:43:48.948Z,93.30
2018-12-02T05:48:53.119Z,116.57
2018-12-02T05:53:57.224Z,107.10
2018-12-02T05:59:01.323Z,87.50
2018-12-02T06:04:05.994Z,92.30
2018-12-02T06:09:10.067Z,106.13
2018-12-02T06:14:13.811Z,85.07
2018-12-02T06:19:17.900Z,84.47
2018-12-02T06:24:23.445Z,117.53
2018-12-02T06:29:27.536Z,109.80
2018-12-02T06:34:31.631Z,94.27
2018-12-02T06:39:35.730Z,114.30
2018-12-02T06:44:39.831Z,143.27
2018-12-02T06:49:43.960Z,121.87
2018-12-02T06:54:48.100Z,95.97
2018-12-02T06:59:57.895Z,102.00
2018-12-02T07:05:02.084Z,118.70
2018-12-02T07:10:06.323Z,129.23
2018-12-02T07:15:10.458Z,108.63
2018-12-02T07:20:14.575Z,104.90
2018-12-02T07:25:18.791Z,136.73
2018-12-02T07:30:25.125Z,104.63
2018-12-02T07:35:28.511Z,95.13
2018-12-02T07:40:54.169Z,106.07
2018-12-02T07:45:58.015Z,113.67
2018-12-02T07:51:01.754Z,61.60
2018-12-02T07:56:06.950Z,94.27
2018-12-02T08:01:11.087Z,97.90
2018-12-02T08:06:15.422Z,87.83
2018-12-02T08:11:20.231Z,75.07
2018-12-02T08:16:24.352Z,75.87
2018-12-02T08:21:28.459Z,92.10
2018-12-02T08:26:32.778Z,74.70
2018-12-02T08:31:36.658Z,77.93
2018-12-02T08:36:40.695Z,79.70
2018-12-02T08:41:44.784Z,110.30
2018-12-02T08:46:48.569Z,93.83
2018-12-02T08:51:52.603Z,104.67
2018-12-02T08:56:56.717Z,79.73
2018-12-02T09:02:01.922Z,71.07
2018-12-02T09:07:06.680Z,71.60
2018-12-02T09:12:10.793Z,81.77
2018-12-02T09:17:14.622Z,58.20
2018-12-02T09:22:18.663Z,64.07
2018-12-02T09:27:22.784Z,79.80
2018-12-02T09:32:26.604Z,90.20
2018-12-02T09:37:30.307Z,67.10
2018-12-02T09:42:34.026Z,77.43
2018-12-02T09:47:38.099Z,69.23
2018-12-02T09:52:42.275Z,64.77
2018-12-02T09:57:46.383Z,75.10
2018-12-02T10:02:50.200Z,68.70
2018-12-02T10:07:53.913Z,70.33
2018-12-02T10:13:00.231Z,66.07
2018-12-02T10:18:04.023Z,63.97
2018-12-02T10:23:08.409Z,71.30
2018-12-02T10:28:12.544Z,62.97
2018-12-02T10:33:16.347Z,53.77
2018-12-02T10:38:20.044Z,49.60
2018-12-02T10:43:24.086Z,50.13
2018-12-02T10:48:28.222Z,68.13
2018-12-02T10:53:32.340Z,44.63
2018-12-02T10:58:36.776Z,46.50
2018-12-02T11:03:40.906Z,47.27
2018-12-02T11:08:45.068Z,45.37
2018-12-02T11:13:49.632Z,30.37
2018-12-02T11:18:54.779Z,54.17
2018-12-02T11:23:59.115Z,40.37
2018-12-02T11:29:03.410Z,45.47
2018-12-02T11:34:08.898Z,49.13
2018-12-02T11:39:12.883Z,42.27
2018-12-02T11:44:16.570Z,36.47
2018-12-02T11:49:20.287Z,39.10
2018-12-02T11:54:23.993Z,40.73
2018-12-02T11:59:28.798Z,37.97
2018-12-02T12:04:32.861Z,44.47
2018-12-02T12:09:36.744Z,37.10
2018-12-02T12:14:40.491Z,38.57
2018-12-02T12:19:44.573Z,40.27
2018-12-02T12:24:48.921Z,30.77
2018-12-02T12:29:52.640Z,38.93
2018-12-02T12:34:56.852Z,34.60
2018-12-02T12:40:01.036Z,32.43
2018-12-02T12:45:08.316Z,35.63
2018-12-02T12:50:12.582Z,47.53
2018-12-02T12:55:16.886Z,44.53
2018-12-02T13:00:21.979Z,43.97
2018-12-02T13:05:26.131Z,46.03
2018-12-02T13:10:29.910Z,47.70
2018-12-02T13:15:33.663Z,50.00
2018-12-02T13:20:38.520Z,39.53
2018-12-02T13:25:42.235Z,35.90
2018-12-02T13:30:46.003Z,45.77
2018-12-02T13:35:49.727Z,45.23
2018-12-02T13:40:53.863Z,42.00
2018-12-02T13:45:57.567Z,53.13
2018-12-02T13:51:01.269Z,51.17
2018-12-02T13:56:05.017Z,49.43
2018-12-02T14:01:09.068Z,67.40
2018-12-02T14:06:13.483Z,54.87
2018-12-02T14:11:17.318Z,59.37
2018-12-02T14:16:26.771Z,58.63
2018-12-02T14:21:30.560Z,51.53
2018-12-02T14:26:34.294Z,49.77
2018-12-02T14:31:38.758Z,61.50
2018-12-02T14:36:42.464Z,44.73
2018-12-02T14:41:46.491Z,61.33
2018-12-02T14:46:50.284Z,63.30
2018-12-02T14:51:54.308Z,63.57
2018-12-02T14:56:58.999Z,47.60
2018-12-02T15:02:02.878Z,45.83
2018-12-02T15:07:06.995Z,58.93
2018-12-02T15:12:10.786Z,52.50
2018-12-02T15:17:14.474Z,56.23
2018-12-02T15:22:18.181Z,57.17
2018-12-02T15:27:21.878Z,52.47
2018-12-02T15:32:25.575Z,49.27
2018-12-02T15:37:29.682Z,50.33
2018-12-02T15:42:35.382Z,40.50
2018-12-02T15:47:39.402Z,43.00
2018-12-02T15:52:43.560Z,62.77
2018-12-02T15:57:47.355Z,63.77
2018-12-02T16:02:51.062Z,55.03
2018-12-02T16:07:54.779Z,53.37
2018-12-02T16:12:58.481Z,46.67
2018-12-02T16:18:02.810Z,46.23
2018-12-02T16:23:06.915Z,57.77
2018-12-02T16:28:10.939Z,59.47
2018-12-02T16:33:14.724Z,49.33
2018-12-02T16:38:18.445Z,54.10
2018-12-02T16:43:22.479Z,52.07
2018-12-02T16:48:26.601Z,52.50
2018-12-02T16:53:30.549Z,65.30
2018-12-02T16:58:39.988Z,49.53
2018-12-02T17:03:43.776Z,55.53
2018-12-02T17:08:47.830Z,49.67
2018-12-02T17:13:51.614Z,55.30
2018-12-02T17:18:55.321Z,53.87
2018-12-02T17:23:59.431Z,55.20
2018-12-02T17:29:03.920Z,76.20
2018-12-02T17:34:08.041Z,60.73
2018-12-02T17:39:15.824Z,48.73
2018-12-02T17:44:19.922Z,58.30
2018-12-02T17:49:24.035Z,57.23
2018-12-02T17:54:28.169Z,63.93
2018-12-02T17:59:32.275Z,65.37
2018-12-02T18:04:36.128Z,71.77
2018-12-02T18:09:40.251Z,75.20
2018-12-02T18:14:44.110Z,84.67
2018-12-02T18:19:48.131Z,73.53
2018-12-02T18:24:52.264Z,64.20
2018-12-02T18:29:56.061Z,63.63
2018-12-02T18:35:00.080Z,59.17
2018-12-02T18:40:04.303Z,59.70
2018-12-02T18:45:09.475Z,57.47
2018-12-02T18:50:13.642Z,57.73
2018-12-02T18:55:17.766Z,52.00
2018-12-02T19:00:27.305Z,55.70
2018-12-02T19:05:31.419Z,67.23
2018-12-02T19:10:35.580Z,60.03
2018-12-02T19:15:39.698Z,49.30
2018-12-02T19:20:43.817Z,54.73
2018-12-02T19:25:48.139Z,67.53
2018-12-02T19:30:52.242Z,56.97
2018-12-02T19:35:59.666Z,69.30
2018-12-02T19:41:03.836Z,57.70
2018-12-02T19:46:07.955Z,44.53
2018-12-02T19:51:12.067Z,43.87
2018-12-02T19:56:16.167Z,43.30
2018-12-02T20:01:19.965Z,41.40
2018-12-02T20:06:23.983Z,36.83
2018-12-02T20:11:28.109Z,34.73
2018-12-02T20:16:32.248Z,31.93
2018-12-02T20:21:36.356Z,33.40
2018-12-02T20:26:40.475Z,46.03
2018-12-02T20:31:44.587Z,42.67
2018-12-02T20:36:48.705Z,39.80
2018-12-02T20:41:52.819Z,43.27
2018-12-02T20:46:56.919Z,38.50
2018-12-02T20:52:01.091Z,42.40
2018-12-02T20:57:07.005Z,41.87
2018-12-02T21:02:11.131Z,35.43
2018-12-02T21:07:16.340Z,44.27
2018-12-02T21:12:20.567Z,43.00
2018-12-02T21:17:24.739Z,38.83
2018-12-02T21:22:28.834Z,37.87
2018-12-02T21:27:33.031Z,40.10
2018-12-02T21:32:36.806Z,42.90
2018-12-02T21:37:42.620Z,45.27
2018-12-02T21:42:48.347Z,33.17
2018-12-02T21:47:53.137Z,41.60
2018-12-02T21:52:58.367Z,39.57
2018-12-02T21:58:02.178Z,46.47
2018-12-02T22:03:06.392Z,47.57
2018-12-02T22:08:10.611Z,61.13
2018-12-02T22:13:14.919Z,49.47
2018-12-02T22:18:20.159Z,43.73
2018-12-02T22:23:24.538Z,35.97
2018-12-02T22:28:30.214Z,33.97
2018-12-02T22:33:34.644Z,34.80
2018-12-02T22:38:38.751Z,37.90
2018-12-02T22:43:42.867Z,36.90
2018-12-02T22:48:46.999Z,37.63
2018-12-02T22:53:51.110Z,37.97
2018-12-02T22:58:54.906Z,44.90
2018-12-02T23:03:59.286Z,39.00
2018-12-02T23:09:03.746Z,50.23
2018-12-02T23:14:10.930Z,48.87
2018-12-02T23:19:16.266Z,41.80
2018-12-02T23:24:20.472Z,37.67
2018-12-02T23:29:24.843Z,35.37
2018-12-02T23:34:29.039Z,43.00
2018-12-02T23:39:33.530Z,46.67
2018-12-02T23:44:37.867Z,43.53
2018-12-02T23:49:42.178Z,50.63
2018-12-02T23:54:46.447Z,49.50
2018-12-02T23:59:51.051Z,55.47
